• Join FlightAware (Why Join?)
  • Login
  • US Flag 
09:00AM EDT


 

Airport Tracker/Info


-or-


 

Live Flight TrackerFlight Track Log ✈ N770NC ✈ 14-Jun-2013 ✈ KATL - KLIT

Flight Track Log - Related Links

Times and Time Zones

All times are in EDT time to prevent confusion due to time zone crossing. See the N770NC flight status page for this flight to view local times or setup timezone preferences in your user account.

Time Position Orientation Groundspeed Altitude Reporting Facility
EDT Latitude Longitude Course Direction KTS MPH feet Rate Location/Type
05:24PM 33.6667 -84.3000 268° West 253 291 4,200  Level Atlanta TRACON
05:26PM 33.6772 -84.8226 277° West  Level FlightAware Approximate
05:26PM 33.7878 -84.2861 North 263 303 8,200  Level Atlanta Center
05:27PM 33.6918 -84.9423 280° West  Level FlightAware Approximate
05:28PM 33.7105 -85.0731 280° West  Level FlightAware Approximate
05:28PM 33.8144 -84.4864 279° West 286 329 11,200  Level Atlanta Center
05:29PM 33.7167 -85.2051 270° West  Level FlightAware Approximate
05:29PM 33.7847 -84.5986 252° West 328 377 13,200  Level Atlanta Center
05:30PM 33.7125 -85.3377 268° West  Level FlightAware Approximate
05:30PM 33.7592 -84.7058 254° West 344 396 14,600  Level Atlanta Center
05:31PM 33.7314 -84.8181 253° West 351 404 16,200 1,500 Climbing Atlanta Center
05:32PM 33.6992 -84.9453 253° West 376 433 17,600 1,200 Climbing Atlanta Center
05:33PM 33.6794 -85.0572 258° West 381 438 18,600 1,140 Climbing Atlanta Center
05:34PM 33.6700 -85.1919 265° West 399 459 19,900 1,260 Climbing Atlanta Center
05:35PM 33.6622 -85.3242 266° West 404 465 21,200 1,200 Climbing Atlanta Center
05:36PM 33.6483 -85.4611 263° West 410 472 22,400 1,260 Climbing Atlanta Center
05:37PM 33.6425 -85.5958 267° West 410 472 23,800 1,260 Climbing Atlanta Center
05:38PM 33.6386 -85.7306 268° West 404 465 25,000 1,020 Climbing Atlanta Center
05:39PM 33.6283 -85.8600 265° West 404 465 25,900 840 Climbing Atlanta Center
05:40PM 33.6325 -85.9950 272° West 399 459 26,700 780 Climbing Atlanta Center
05:41PM 33.6303 -86.1344 269° West 410 472 27,500 600 Climbing Atlanta Center
05:42PM 33.6319 -86.2744 271° West 415 478 28,000 240 Climbing Atlanta Center
05:43PM 33.6358 -86.4142 272° West 420 483 28,000  Level Atlanta Center
05:44PM 33.6456 -86.5517 275° West 420 483 28,000  Level Atlanta Center
05:45PM 33.6550 -86.6892 275° West 420 483 28,000  Level Atlanta Center
05:46PM 33.6647 -86.8267 275° West 420 483 28,000  Level Atlanta Center
05:47PM 33.6761 -86.9594 276° West 420 483 28,000  Level Atlanta Center
05:48PM 33.7042 -87.0928 284° West 415 478 28,000  Level Atlanta Center
05:50PM 33.7567 -87.3667 283° West 430 495 28,000  Level Memphis Center
05:52PM 33.7879 -87.4942 281° West  Level FlightAware Approximate
05:52PM 33.8239 -87.6567 281° West 430 495 28,000  Level Memphis Center
05:53PM 33.8542 -87.7958 285° West 436 502 28,000  Level Memphis Center
05:54PM 33.8861 -87.9400 285° West 436 502 28,000  Level Memphis Center
05:55PM 33.9158 -88.0819 284° West 436 502 28,000  Level Memphis Center
05:56PM 33.9456 -88.2164 285° West 443 510 28,000  Level Memphis Center
05:57PM 33.9792 -88.3608 286° West 448 516 28,000  Level Memphis Center
05:58PM 34.0128 -88.5028 286° West 448 516 28,000  Level Memphis Center
05:59PM 34.0461 -88.6450 286° West 448 516 28,000  Level Memphis Center
06:00PM 34.0772 -88.7872 285° West 448 516 28,000  Level Memphis Center
06:01PM 34.1081 -88.9247 285° West 438 504 28,000  Level Memphis Center
06:02PM 34.1411 -89.0797 284° West 433 498 28,000  Level Memphis Center
06:03PM 34.1736 -89.2225 285° West 433 498 28,000  Level Memphis Center
06:04PM 34.2064 -89.3650 286° West 433 498 28,000  Level Memphis Center
06:05PM 34.2367 -89.5081 284° West 433 498 28,000  Level Memphis Center
06:06PM 34.2542 -89.6536 278° West 439 505 28,000  Level Memphis Center
06:07PM 34.2467 -89.8044 267° West 445 512 28,000  Level Memphis Center
06:08PM 34.2367 -89.9553 265° West 451 519 28,000  Level Memphis Center
06:09PM 34.2308 -90.0883 267° West 456 525 28,000  Level Memphis Center
06:10PM 34.2269 -90.2392 268° West 456 525 28,000  Level Memphis Center
06:11PM 34.2228 -90.3922 268° West 461 531 28,000  Level Memphis Center
06:12PM 34.2206 -90.5406 269° West 461 531 28,000 -660 Level Memphis Center
06:13PM 34.2161 -90.6911 268° West 456 525 26,700 -1,500 Descending Memphis Center
06:14PM 34.2133 -90.8594 269° West 456 525 25,000 -1,800 Descending Memphis Center
06:15PM 34.2108 -91.0078 269° West 456 525 23,200 -1,800 Descending Memphis Center
06:16PM 34.2369 -91.1461 283° West 437 503 21,500 -1,680 Descending Memphis Center
06:17PM 34.2719 -91.2294 297° West 435 501 20,400 -1,620 Descending Memphis Center
06:17PM 34.2903 -91.2772 295° West 432 497 19,900 -1,800 Descending Memphis Center
06:18PM 34.3150 -91.3403 295° West 416 479 18,800 -2,220 Descending Memphis Center
06:18PM 34.3417 -91.3936 301° West 405 466 17,700 -3,000 Descending Memphis Center
06:19PM 34.3703 -91.4592 298° West 381 438 15,800 -3,540 Descending Memphis Center
06:19PM 34.3867 -91.5072 292° West 389 448 14,200 -3,600 Descending Memphis Center
06:20PM 34.4131 -91.5858 292° West 387 445 12,200 -3,000 Descending Memphis Center
06:20PM 34.4292 -91.6314 293° West 384 442 11,200 -1,620 Descending Memphis Center
06:21PM 34.4514 -91.6972 292° West 373 429 10,600 -1,020 Descending Memphis Center
06:21PM 34.4719 -91.7378 302° West 366 421 10,200 -720 Descending Memphis Center
06:22PM 34.4922 -91.7961 293° West 290 334 9,900 -1,140 Descending Memphis Center
06:22PM 34.5064 -91.8264 300° West 331 381 9,100 -1,920 Descending Memphis Center
06:23PM 34.5161 -91.8797 282° West 276 318 8,000 -1,920 Descending Memphis Center
06:23PM 34.5281 -91.9203 290° West 304 350 7,200 -1,740 Descending Memphis Center
06:24PM 34.5417 -92.0161 280° West 291 335 5,700 -1,740 Descending Memphis Center
06:25PM 34.5511 -92.0794 280° West 279 321 4,300 -1,800 Descending Memphis Center
06:25PM 34.5550 -92.0947 287° West 280 322 3,900 -1,500 Descending Memphis Center
06:26PM 34.5744 -92.1933 283° West 269 310 2,400 -960 Descending Memphis Center
06:27PM 34.5986 -92.2619 293° West 263 303 2,000 -420 Descending Memphis Center